Flight Track Log - Related Links

Times and Time Zones

All times are in EDT time to prevent confusion due to time zone crossing. See the AAL1554 flight status page for this flight to view local times or setup timezone preferences in your user account.

Time Position Orientation Groundspeed Altitude Reporting Facility
EDT Latitude Longitude Course Direction KTS MPH feet Rate Location/Type
Mon 08:35:38 PM 32.8833 -97.0333 357° North 186 214 1,300  Level Dallas / Fort Worth TRACON
Mon 08:36:02 PM 32.8500 -97.0333 180° South 183 211 2,100 1,835 Climbing Dallas / Fort Worth TRACON
Mon 08:37:03 PM 32.8000 -97.0000 151° Southeast 237 273 3,900 1,900 Climbing Dallas / Fort Worth TRACON
Mon 08:38:00 PM 32.8707 -96.8000 North  Level FlightAware Approximate
Mon 08:38:02 PM 32.7667 -96.9333 121° Southeast 257 296 5,900  Level Dallas / Fort Worth TRACON
Mon 08:39:00 PM 32.9959 -96.8000 North  Level FlightAware Approximate
Mon 08:39:02 PM 32.7667 -96.8500 90° East 287 330 7,900  Level Dallas / Fort Worth TRACON
Mon 08:40:00 PM 33.1210 -96.8039 357° North  Level FlightAware Approximate
Mon 08:40:02 PM 32.8333 -96.8000 32° Northeast 304 350 10,200  Level Dallas / Fort Worth TRACON
Mon 08:41:00 PM 33.2460 -96.8128 357° North  Level FlightAware Approximate
Mon 08:42:13 PM 33.0161 -96.8858 339° North 309 356 15,100  Level Fort Worth Center
Mon 08:43:13 PM 33.1078 -96.8753 North 320 368 16,200 1,300 Climbing Fort Worth Center
Mon 08:44:13 PM 33.2142 -96.8572 North 370 426 17,700 1,533 Climbing Fort Worth Center
Mon 08:46:13 PM 33.4228 -96.8286 North 391 450 20,800 1,567 Climbing Fort Worth Center
Mon 08:47:13 PM 33.5394 -96.7806 19° North 391 450 22,400 1,350 Climbing Fort Worth Center
Mon 08:48:13 PM 33.6436 -96.7722 North 406 467 23,500 1,150 Climbing Fort Worth Center
Mon 08:49:13 PM 33.7753 -96.7614 North 418 481 24,700 1,200 Climbing Fort Worth Center
Mon 08:50:13 PM 33.8858 -96.7481 North 432 497 25,900 1,250 Climbing Fort Worth Center
Mon 08:51:13 PM 34.0044 -96.7119 14° North 444 511 27,200 1,150 Climbing Fort Worth Center
Mon 08:52:13 PM 34.1167 -96.6333 30° Northeast 438 504 28,200 1,150 Climbing Fort Worth Center
Mon 08:53:13 PM 34.2078 -96.5319 43° Northeast 420 483 29,500 1,100 Climbing Fort Worth Center
Mon 08:54:13 PM 34.2947 -96.4281 45° Northeast 431 496 30,400 750 Climbing Fort Worth Center
Mon 08:55:13 PM 34.3836 -96.3239 44° Northeast 436 502 31,000 300 Climbing Fort Worth Center
Mon 08:56:13 PM 34.4725 -96.2244 43° Northeast 436 502 31,000  Level Fort Worth Center
Mon 08:57:13 PM 34.5589 -96.1200 45° Northeast 436 502 31,000  Level Fort Worth Center
Mon 08:58:13 PM 34.6497 -96.0203 42° Northeast 436 502 31,000  Level Fort Worth Center
Mon 08:59:13 PM 34.7361 -95.9178 44° Northeast 436 502 31,000  Level Fort Worth Center
Mon 09:00:13 PM 34.8247 -95.8150 44° Northeast 430 495 31,000  Level Fort Worth Center
Mon 09:01:13 PM 34.9069 -95.7247 42° Northeast 438 504 31,000  Level Fort Worth Center
Mon 09:02:13 PM 34.9950 -95.6217 44° Northeast 438 504 31,000  Level Fort Worth Center
Mon 09:03:13 PM 35.0833 -95.5183 44° Northeast 438 504 31,000  Level Fort Worth Center
Mon 09:04:32 PM 35.2069 -95.3733 44° Northeast 432 497 31,000  Level Memphis Center
Mon 09:05:32 PM 35.2944 -95.2692 44° Northeast 437 503 31,000  Level Memphis Center
Mon 09:06:32 PM 35.3797 -95.1675 44° Northeast 437 503 31,000  Level Memphis Center
Mon 09:07:32 PM 35.4694 -95.0603 44° Northeast 432 497 31,000  Level Memphis Center
Mon 09:08:32 PM 35.5589 -94.9558 44° Northeast 432 497 31,000  Level Memphis Center
Mon 09:09:32 PM 35.6483 -94.8483 44° Northeast 437 503 31,000  Level Memphis Center
Mon 09:10:32 PM 35.7356 -94.7406 45° Northeast 443 510 31,000  Level Memphis Center
Mon 09:11:32 PM 35.8247 -94.6325 44° Northeast 448 516 31,000  Level Memphis Center
Mon 09:12:32 PM 35.9139 -94.5269 44° Northeast 448 516 31,000  Level Memphis Center
Mon 09:13:32 PM 36.0028 -94.4186 45° Northeast 448 516 31,000  Level Memphis Center
Mon 09:14:32 PM 36.0917 -94.3125 44° Northeast 448 516 31,000  Level Memphis Center
Mon 09:15:32 PM 36.1806 -94.2064 44° Northeast 448 516 31,000  Level Memphis Center
Mon 09:16:32 PM 36.2675 -94.0944 46° Northeast 448 516 31,000  Level Memphis Center
Mon 09:18:32 PM 36.4364 -93.8725 47° Northeast 447 514 31,000  Level Kansas City Center
Mon 09:19:35 PM 36.5183 -93.7606 48° Northeast 447 514 31,000  Level Kansas City Center
Mon 09:20:36 PM 36.6050 -93.6472 46° Northeast 448 516 31,000  Level Kansas City Center
Mon 09:21:37 PM 36.6908 -93.5317 47° Northeast 450 518 31,000  Level Kansas City Center
Mon 09:22:38 PM 36.7572 -93.4031 57° Northeast 452 520 31,000  Level Kansas City Center
Mon 09:23:40 PM 36.8208 -93.2703 59° Northeast 449 517 31,000  Level Kansas City Center
Mon 09:24:44 PM 36.8889 -93.1267 59° Northeast 452 520 31,000  Level Kansas City Center
Mon 09:25:44 PM 36.9533 -92.9917 59° Northeast 453 521 31,000  Level Kansas City Center
Mon 09:26:44 PM 37.0181 -92.8589 59° Northeast 450 518 31,000  Level Kansas City Center
Mon 09:27:47 PM 37.0933 -92.6975 60° Northeast 449 517 31,000  Level Kansas City Center
Mon 09:28:48 PM 37.1569 -92.5631 59° Northeast 449 517 31,000  Level Kansas City Center
Mon 09:29:49 PM 37.2197 -92.4294 59° Northeast 447 514 31,000  Level Kansas City Center
Mon 09:30:52 PM 37.2828 -92.2942 60° Northeast 450 518 31,000  Level Kansas City Center
Mon 09:31:54 PM 37.3458 -92.1597 59° Northeast 450 518 31,000  Level Kansas City Center
Mon 09:32:55 PM 37.4075 -92.0253 60° Northeast 447 514 31,000  Level Kansas City Center
Mon 09:33:57 PM 37.4697 -91.8906 60° Northeast 447 514 31,000  Level Kansas City Center
Mon 09:34:58 PM 37.5447 -91.7286 61° Northeast 448 516 31,000  Level Kansas City Center
Mon 09:35:00 PM 37.5294 -91.7529 61° Northeast  Level FlightAware Approximate
Mon 09:35:58 PM 37.6075 -91.5942 59° Northeast 447 514 31,000  Level Kansas City Center
Mon 09:37:01 PM 37.6567 -91.4492 67° East 451 519 31,000  Level Kansas City Center
Mon 09:38:02 PM 37.6969 -91.2950 72° East 459 528 31,000  Level Kansas City Center
Mon 09:39:03 PM 37.7392 -91.1425 71° East 461 531 31,000  Level Kansas City Center
Mon 09:40:06 PM 37.7839 -90.9789 71° East 462 532 31,000  Level Kansas City Center
Mon 09:41:08 PM 37.8258 -90.8269 71° East 460 529 31,000  Level Kansas City Center
Mon 09:42:09 PM 37.8669 -90.6736 71° East 461 531 31,000  Level Kansas City Center
Mon 09:43:09 PM 37.9078 -90.5208 71° East 462 532 31,000  Level Kansas City Center
Mon 09:44:10 PM 37.9494 -90.3667 71° East 464 534 31,000  Level Kansas City Center
Mon 09:45:13 PM 37.9892 -90.2114 72° East 466 536 31,000  Level Kansas City Center
Mon 09:46:15 PM 38.0372 -90.0328 71° East 460 529 31,000  Level Kansas City Center
Mon 09:47:16 PM 38.0775 -89.8794 72° East 460 529 31,000  Level Kansas City Center
Mon 09:48:15 PM 38.1178 -89.7225 72° East 461 531 31,000  Level Kansas City Center
Mon 09:49:19 PM 38.1597 -89.5603 72° East 461 531 31,000  Level Kansas City Center
Mon 09:50:19 PM 38.1986 -89.4075 72° East 458 527 31,000  Level Kansas City Center
Mon 09:51:20 PM 38.2400 -89.2431 72° East 457 526 31,000  Level Kansas City Center
Mon 09:52:23 PM 38.2783 -89.0897 72° East 458 527 31,000  Level Kansas City Center
Mon 09:53:24 PM 38.3117 -88.9564 72° East 458 527 31,000  Level Kansas City Center
Mon 09:54:25 PM 38.3575 -88.7700 73° East 458 527 31,000  Level Kansas City Center
Mon 09:55:26 PM 38.3936 -88.6231 73° East 462 532 31,000  Level Kansas City Center
Mon 09:56:26 PM 38.4317 -88.4653 73° East 462 532 31,000  Level Kansas City Center
Mon 09:57:29 PM 38.4714 -88.3092 72° East 462 532 31,000  Level Kansas City Center
Mon 09:58:31 PM 38.5097 -88.1508 73° East 463 533 31,000  Level Kansas City Center
Mon 09:59:32 PM 38.5419 -87.9861 76° East 472 543 31,000  Level Kansas City Center
Mon 10:00:33 PM 38.5667 -87.8203 79° East 473 544 31,000  Level Kansas City Center
Mon 10:01:42 PM 38.5989 -87.6208 78° East 476 548 31,000  Level Indianapolis Center
Mon 10:02:43 PM 38.6269 -87.4519 78° East 480 552 31,000  Level Indianapolis Center
Mon 10:03:45 PM 38.6536 -87.2842 78° East 477 549 31,000  Level Indianapolis Center
Mon 10:04:46 PM 38.6808 -87.1164 78° East 476 548 31,000  Level Indianapolis Center
Mon 10:05:47 PM 38.7072 -86.9481 79° East 475 547 31,000  Level Indianapolis Center
Mon 10:06:49 PM 38.7333 -86.7811 79° East 474 545 31,000  Level Indianapolis Center
Mon 10:07:50 PM 38.7583 -86.6158 79° East 469 540 31,000  Level Indianapolis Center
Mon 10:08:52 PM 38.7906 -86.4161 78° East 473 544 31,000  Level Indianapolis Center
Mon 10:09:53 PM 38.8144 -86.2531 79° East 466 536 31,000  Level Indianapolis Center
Mon 10:10:54 PM 38.8389 -86.0906 79° East 462 532 31,000  Level Indianapolis Center
Mon 10:11:56 PM 38.8633 -85.9303 79° East 457 526 31,000  Level Indianapolis Center
Mon 10:12:57 PM 38.8883 -85.7586 79° East 459 528 31,000  Level Indianapolis Center
Mon 10:13:58 PM 38.9117 -85.5986 79° East 460 529 31,000  Level Indianapolis Center
Mon 10:15:00 PM 38.9344 -85.4375 80° East 462 532 31,000  Level Indianapolis Center
Mon 10:16:01 PM 38.9572 -85.2769 80° East 462 532 31,000  Level Indianapolis Center
Mon 10:17:03 PM 38.9794 -85.1158 80° East 461 531 31,000  Level Indianapolis Center
Mon 10:18:04 PM 39.0025 -84.9561 79° East 458 527 31,000  Level Indianapolis Center
Mon 10:19:05 PM 39.0275 -84.7761 80° East 464 534 31,000  Level Indianapolis Center
Mon 10:20:07 PM 39.0500 -84.6106 80° East 466 536 31,000  Level Indianapolis Center
Mon 10:21:08 PM 39.0717 -84.4469 80° East 462 532 31,000  Level Indianapolis Center
Mon 10:22:09 PM 39.0936 -84.2839 80° East 461 531 31,000  Level Indianapolis Center
Mon 10:23:11 PM 39.1156 -84.1203 80° East 460 529 31,000  Level Indianapolis Center
Mon 10:24:12 PM 39.1364 -83.9547 81° East 464 534 31,000  Level Indianapolis Center
Mon 10:25:13 PM 39.1575 -83.7917 80° East 461 531 31,000  Level Indianapolis Center
Mon 10:26:15 PM 39.1817 -83.5981 81° East 466 536 31,000  Level Indianapolis Center
Mon 10:27:16 PM 39.2022 -83.4319 81° East 468 539 31,000  Level Indianapolis Center
Mon 10:28:17 PM 39.2236 -83.2633 81° East 476 548 31,000  Level Indianapolis Center
Mon 10:29:18 PM 39.2442 -83.0956 81° East 473 544 31,000  Level Indianapolis Center
Mon 10:30:20 PM 39.2636 -82.9333 81° East 460 529 31,000  Level Indianapolis Center
Mon 10:31:21 PM 39.2839 -82.7692 81° East 460 529 31,000  Level Indianapolis Center
Mon 10:32:22 PM 39.3033 -82.6078 81° East 455 524 31,000  Level Indianapolis Center
Mon 10:33:24 PM 39.3217 -82.4483 81° East 457 526 31,000  Level Indianapolis Center
Mon 10:34:25 PM 39.3406 -82.2850 81° East 459 528 31,000  Level Indianapolis Center
Mon 10:35:27 PM 39.4092 -82.1497 57° Northeast 459 528 31,000  Level Indianapolis Center
Mon 10:36:28 PM 39.5272 -82.1017 17° North 455 524 31,000  Level Indianapolis Center
Mon 10:37:29 PM 39.6772 -82.1039 359° North 449 517 31,000  Level Indianapolis Center
Mon 10:38:31 PM 39.7647 -81.9906 45° Northeast 447 514 31,000  Level Indianapolis Center
Mon 10:39:32 PM 39.8000 -81.8328 74° East 452 520 31,000  Level Indianapolis Center
Mon 10:40:33 PM 39.8358 -81.6689 74° East 465 535 31,000  Level Indianapolis Center
Mon 10:41:35 PM 39.8708 -81.5092 74° East 460 529 31,000  Level Indianapolis Center
Mon 10:42:36 PM 39.9275 -81.3575 64° Northeast 477 549 31,000  Level Indianapolis Center
Mon 10:43:38 PM 39.9822 -81.2047 65° Northeast 483 556 31,000  Level Indianapolis Center
Mon 10:44:39 PM 39.9383 -81.0575 111° Southeast 445 512 31,000  Level Indianapolis Center
Mon 10:45:40 PM 39.8356 -80.9914 154° Southeast 415 478 31,000  Level Indianapolis Center
Mon 10:46:42 PM 39.7311 -80.9322 156° South 408 470 31,000  Level Indianapolis Center
Mon 10:47:43 PM 39.6286 -80.8742 156° South 401 461 31,000  Level Indianapolis Center
Mon 10:48:45 PM 39.5050 -80.8033 156° South 402 463 31,000  Level Indianapolis Center
Mon 10:49:46 PM 39.4200 -80.7106 140° Southeast 418 481 31,000  Level Indianapolis Center
Mon 10:50:47 PM 39.4222 -80.5481 89° East 464 534 31,000 -392 Level Indianapolis Center
Mon 10:52:19 PM 39.5814 -80.3783 39° Northeast 410 472 30,000 -711 Descending Cleveland Center
Mon 10:53:19 PM 39.7061 -80.2889 29° Northeast 459 528 29,200 -500 Descending Cleveland Center
Mon 10:54:19 PM 39.8267 -80.1992 30° Northeast 474 545 29,000 -100 Descending Cleveland Center
Mon 10:55:19 PM 39.9242 -80.0769 44° Northeast 488 562 29,000  Level Cleveland Center
Mon 10:57:23 PM 39.8753 -79.7525 101° East 417 480 29,000 -422 Level Washington Center
Mon 10:58:24 PM 39.8244 -79.5956 113° Southeast 441 507 27,700 -1,240 Descending Washington Center
Mon 10:59:24 PM 39.7753 -79.4389 112° Southeast 453 521 26,500 -1,119 Descending Washington Center
Mon 11:00:22 PM 39.7278 -79.2878 112° Southeast 458 527 25,500 -756 Descending Washington Center
Mon 11:01:23 PM 39.6781 -79.1397 114° Southeast 458 527 25,000 -246 Descending Washington Center
Mon 11:02:24 PM 39.6389 -78.9842 108° East 453 521 25,000 -645 Level Washington Center
Mon 11:03:24 PM 39.6000 -78.8072 106° East 458 527 23,700 -1,815 Descending Washington Center
Mon 11:04:23 PM 39.5647 -78.6442 106° East 458 527 21,400 -2,350 Descending Washington Center
Mon 11:05:24 PM 39.5289 -78.4919 107° East 458 527 19,000 -2,182 Descending Washington Center
Mon 11:06:24 PM 39.4967 -78.3456 106° East 453 521 17,000 -1,932 Descending Washington Center
Mon 11:07:22 PM 39.4644 -78.2044 106° East 422 486 15,200 -1,008 Descending Washington Center
Mon 11:08:23 PM 39.4361 -78.0692 105° East 402 463 15,000 -443 Descending Washington Center
Mon 11:09:24 PM 39.4203 -77.9261 98° East 402 463 14,300 -1,008 Descending Washington Center
Mon 11:10:22 PM 39.4292 -77.7786 85° East 396 456 13,000 -1,000 Descending Washington Center
Mon 11:11:24 PM 39.4358 -77.6392 86° East 396 456 12,300 -787 Descending Washington Center
Mon 11:12:24 PM 39.4403 -77.4967 88° East 396 456 11,400 -650 Descending Washington Center
Mon 11:13:24 PM 39.4464 -77.3600 87° East 396 456 11,000 -276 Descending Washington Center
Mon 11:13:51 PM 39.4500 -77.3000 86° East 380 437 11,000  Level Potomac TRACON
Mon 11:14:57 PM 39.4833 -77.1500 74° East 375 432 11,000  Level Potomac TRACON
Mon 11:15:22 PM 39.4875 -77.1028 83° East 371 427 11,000 -1,047 Level Washington Center
Mon 11:16:23 PM 39.5033 -76.9875 80° East 346 398 9,500 -1,530 Descending Washington Center
Mon 11:17:51 PM 39.5167 -76.8167 84° East 310 357 7,200 -1,558 Descending Potomac TRACON
Mon 11:18:57 PM 39.5000 -76.7000 100° East 298 343 5,500 -1,048 Descending Potomac TRACON
Mon 11:19:57 PM 39.4500 -76.6167 128° Southeast 287 330 5,000 -750 Descending Potomac TRACON
Mon 11:20:57 PM 39.4000 -76.5500 134° Southeast 284 327 4,000 -500 Descending Potomac TRACON
Mon 11:21:57 PM 39.3500 -76.4833 134° Southeast 279 321 4,000  Level Potomac TRACON
Mon 11:22:57 PM 39.2833 -76.4167 142° Southeast 274 315 4,000  Level Potomac TRACON
Mon 11:23:57 PM 39.2167 -76.4000 169° South 246 283 4,000  Level Potomac TRACON
Mon 11:24:57 PM 39.1500 -76.3667 159° South 225 259 4,000  Level Potomac TRACON
Mon 11:25:51 PM 39.1000 -76.3667 180° South 222 255 4,000 -450 Level Potomac TRACON
Mon 11:26:57 PM 39.0833 -76.4333 252° West 205 236 3,100 -500 Descending Potomac TRACON
Mon 11:27:51 PM 39.0667 -76.4833 247° West 181 208 3,000 -550 Descending Potomac TRACON
Mon 11:28:57 PM 39.0667 -76.5500 270° West 149 171 2,000 -909 Descending Potomac TRACON

Login

Don't have an account? Register now (free) for customized features, flight alerts, and more!